Time;durP1;ratioP1;P1;durP2;ratioP2;P2;SDS_P1;SDS_P2;PMS_P1;PMS_P2;Temp;Humidity;BMP_temperature;BMP_pressure;BME280_temperature;BME280_humidity;BME280_pressure;Samples;Min_cycle;Max_cycle;Signal;HPM_P1;HPM_P2
2023/03/21 00:00:37;;;;;;;15.85;11.73;;;10.00;99.90;;;;;;5157291;27;20039;-79
2023/03/21 00:03:03;;;;;;;14.07;10.65;;;10.00;99.90;;;;;;5138731;27;20402;-78
2023/03/21 00:05:28;;;;;;;12.20;10.40;;;10.00;99.90;;;;;;5156761;27;20091;-79
2023/03/21 00:07:55;;;;;;;15.32;12.15;;;10.00;99.90;;;;;;5156804;27;20099;-78
2023/03/21 00:10:21;;;;;;;11.63;9.73;;;9.90;99.90;;;;;;5156703;27;20054;-78
2023/03/21 00:12:54;;;;;;;13.98;10.85;;;10.00;99.90;;;;;;5157108;27;20034;-79
2023/03/21 00:15:20;;;;;;;12.27;9.63;;;10.00;99.90;;;;;;5121562;27;20059;-79
2023/03/21 00:17:49;;;;;;;13.25;10.48;;;9.90;99.90;;;;;;5156339;27;20304;-77
2023/03/21 00:20:15;;;;;;;14.55;10.45;;;10.00;99.90;;;;;;5156400;27;20081;-79
2023/03/21 00:22:41;;;;;;;12.70;10.27;;;10.00;99.90;;;;;;5156479;27;20042;-79
2023/03/21 00:25:09;;;;;;;11.20;10.02;;;10.00;99.90;;;;;;5156450;27;20042;-77
2023/03/21 00:27:35;;;;;;;11.63;9.93;;;10.00;99.90;;;;;;5155941;27;20467;-79
2023/03/21 00:30:02;;;;;;;10.90;8.70;;;10.00;99.90;;;;;;5156048;27;20123;-79
2023/03/21 00:32:28;;;;;;;12.88;10.40;;;10.00;99.90;;;;;;5156158;27;20050;-79
2023/03/21 00:34:54;;;;;;;11.23;9.15;;;10.00;99.90;;;;;;5138543;27;20057;-78
2023/03/21 00:37:19;;;;;;;11.73;10.48;;;10.00;99.90;;;;;;5156569;27;20042;-79
2023/03/21 00:39:48;;;;;;;14.93;11.52;;;10.00;99.90;;;;;;5156135;27;20038;-79
2023/03/21 00:42:15;;;;;;;13.68;10.57;;;10.00;99.90;;;;;;5156558;27;20057;-79
2023/03/21 00:44:41;;;;;;;16.98;12.77;;;10.00;99.90;;;;;;5155837;27;20465;-79
2023/03/21 00:47:08;;;;;;;26.38;14.60;;;10.00;99.90;;;;;;5155695;27;20392;-79
2023/03/21 00:49:34;;;;;;;23.75;16.17;;;10.00;99.90;;;;;;5155952;27;20547;-79
2023/03/21 00:52:05;;;;;;;27.58;18.88;;;10.00;99.90;;;;;;5155894;27;20038;-79
2023/03/21 00:54:32;;;;;;;33.85;22.33;;;10.00;99.90;;;;;;5138001;27;20054;-79
2023/03/21 00:56:58;;;;;;;28.33;18.90;;;10.00;99.90;;;;;;5155822;27;20042;-79
2023/03/21 00:59:24;;;;;;;37.92;21.88;;;10.00;99.90;;;;;;5156028;27;20061;-78
2023/03/21 01:01:52;;;;;;;34.85;21.30;;;10.00;99.90;;;;;;5155478;27;20118;-80
2023/03/21 01:04:20;;;;;;;39.08;21.65;;;9.90;99.90;;;;;;5156278;27;20046;-77
2023/03/21 01:06:46;;;;;;;38.13;24.08;;;9.90;99.90;;;;;;5156238;27;20046;-78
2023/03/21 01:09:21;;;;;;;41.95;22.83;;;10.00;99.90;;;;;;5138007;27;20499;-78
2023/03/21 01:11:48;;;;;;;38.78;21.98;;;10.00;99.90;;;;;;5155998;27;20057;-79
2023/03/21 01:14:16;;;;;;;34.58;22.30;;;9.90;99.90;;;;;;5155807;27;20133;-79
2023/03/21 01:16:42;;;;;;;38.67;22.60;;;9.90;99.90;;;;;;5155606;27;20125;-78
2023/03/21 01:19:12;;;;;;;38.90;24.20;;;9.90;99.90;;;;;;5137231;27;20043;-78
2023/03/21 01:21:38;;;;;;;37.92;24.17;;;9.90;99.90;;;;;;5155189;27;20050;-78
2023/03/21 01:24:04;;;;;;;43.83;25.67;;;9.90;99.90;;;;;;5155873;27;20050;-78
2023/03/21 01:26:30;;;;;;;35.97;25.50;;;10.00;99.90;;;;;;5155357;27;20049;-77
2023/03/21 01:28:56;;;;;;;34.40;23.35;;;10.00;99.90;;;;;;5154821;27;20046;-78
2023/03/21 01:31:21;;;;;;;36.63;23.67;;;10.00;99.90;;;;;;5155858;27;20038;-79
2023/03/21 01:33:47;;;;;;;39.08;23.42;;;10.00;99.90;;;;;;5155501;27;20047;-78
2023/03/21 01:36:16;;;;;;;35.10;21.83;;;10.00;99.90;;;;;;5155387;27;20479;-78
2023/03/21 01:38:42;;;;;;;37.53;22.92;;;10.00;99.90;;;;;;5155705;27;20043;-78
2023/03/21 01:41:26;;;;;;;34.28;22.50;;;9.90;99.90;;;;;;5137128;27;20075;-79
2023/03/21 01:43:52;;;;;;;31.77;20.85;;;10.00;99.90;;;;;;5155204;27;20035;-78
2023/03/21 01:46:38;;;;;;;30.83;20.83;;;10.00;99.90;;;;;;5137042;27;20069;-79
2023/03/21 01:49:26;;;;;;;31.85;20.63;;;10.00;99.90;;;;;;5154925;27;20061;-78
2023/03/21 01:52:06;;;;;;;27.45;19.60;;;10.00;99.90;;;;;;5155379;27;20116;-78
2023/03/21 01:54:36;;;;;;;30.65;20.73;;;10.10;99.90;;;;;;5154545;27;20449;-78
2023/03/21 01:57:08;;;;;;;29.20;19.38;;;10.00;99.90;;;;;;5155107;27;20115;-78
2023/03/21 01:59:41;;;;;;;27.67;19.92;;;10.00;99.90;;;;;;5155220;27;20042;-78
2023/03/21 02:02:12;;;;;;;26.55;18.38;;;10.00;99.90;;;;;;5155115;27;20471;-77
2023/03/21 02:04:39;;;;;;;29.20;20.23;;;10.00;99.90;;;;;;5154863;27;20050;-78
2023/03/21 02:07:17;;;;;;;28.33;18.38;;;10.00;99.90;;;;;;5136011;27;20050;-77
2023/03/21 02:09:49;;;;;;;26.73;18.70;;;10.00;99.90;;;;;;5154224;27;20055;-79
2023/03/21 02:12:15;;;;;;;27.98;17.73;;;10.00;99.90;;;;;;5154421;27;20043;-78
2023/03/21 02:14:42;;;;;;;28.25;18.63;;;10.10;99.90;;;;;;5154550;27;20082;-77
2023/03/21 02:17:16;;;;;;;22.98;17.15;;;10.00;99.90;;;;;;5155002;27;20087;-78
2023/03/21 02:20:07;;;;;;;26.08;19.33;;;10.00;99.90;;;;;;5154322;27;20049;-78
2023/03/21 02:22:42;;;;;;;28.00;18.50;;;9.70;99.90;;;;;;5154619;27;20051;-78
2023/03/21 02:25:14;;;;;;;25.88;18.73;;;10.00;99.90;;;;;;5154302;27;20043;-78
2023/03/21 02:27:54;;;;;;;26.15;18.65;;;10.10;99.90;;;;;;5154470;27;20479;-78
2023/03/21 02:30:26;;;;;;;26.25;20.27;;;10.10;99.90;;;;;;5136045;27;20046;-78
2023/03/21 02:33:30;;;;;;;28.85;21.02;;;10.00;99.90;;;;;;5154107;27;20043;-78
2023/03/21 02:36:17;;;;;;;27.35;18.83;;;10.00;99.90;;;;;;5101374;27;20115;-77
2023/03/21 02:39:00;;;;;;;27.90;19.80;;;10.00;99.90;;;;;;5135676;27;20047;-78
2023/03/21 02:41:53;;;;;;;27.52;19.27;;;10.00;99.90;;;;;;5154571;27;20046;-78
2023/03/21 02:44:25;;;;;;;26.00;18.60;;;10.00;99.90;;;;;;5154522;27;20122;-78
2023/03/21 02:46:56;;;;;;;24.95;17.52;;;10.10;99.90;;;;;;5154385;27;20126;-77
2023/03/21 02:49:31;;;;;;;26.00;18.08;;;10.00;99.90;;;;;;5135512;27;20078;-77
2023/03/21 02:51:58;;;;;;;25.13;17.48;;;10.00;99.90;;;;;;5153785;27;20403;-77
2023/03/21 02:54:26;;;;;;;25.50;16.92;;;10.00;99.90;;;;;;5154214;27;20567;-78
2023/03/21 02:56:55;;;;;;;25.80;18.77;;;10.10;99.90;;;;;;5154023;27;20043;-78
2023/03/21 02:59:23;;;;;;;24.40;16.92;;;10.10;99.90;;;;;;5153994;27;20195;-77
2023/03/21 03:01:51;;;;;;;22.13;14.88;;;10.10;99.90;;;;;;5154382;27;20440;-78
2023/03/21 03:04:23;;;;;;;26.23;17.67;;;10.10;99.90;;;;;;5153869;27;20047;-77
2023/03/21 03:06:57;;;;;;;20.15;15.85;;;10.10;99.90;;;;;;5154202;27;20091;-78
2023/03/21 03:09:37;;;;;;;26.65;17.75;;;10.10;99.90;;;;;;5135598;27;20110;-78
2023/03/21 03:12:33;;;;;;;24.67;16.92;;;10.10;99.90;;;;;;5154239;27;20086;-77
2023/03/21 03:15:44;;;;;;;22.52;14.10;;;10.10;99.90;;;;;;5154007;27;20053;-77
2023/03/21 03:18:28;;;;;;;20.17;14.07;;;10.10;99.90;;;;;;5135442;27;20403;-77
2023/03/21 03:21:15;;;;;;;20.65;14.30;;;10.10;99.90;;;;;;5154229;27;20049;-78
2023/03/21 03:23:53;;;;;;;22.13;14.57;;;10.10;99.90;;;;;;5153702;27;20051;-78
2023/03/21 03:26:25;;;;;;;20.77;13.52;;;10.10;99.90;;;;;;5154267;27;20180;-78
2023/03/21 03:28:54;;;;;;;18.90;12.60;;;10.00;99.90;;;;;;5135249;27;20039;-77
2023/03/21 03:31:32;;;;;;;19.27;12.70;;;10.10;99.90;;;;;;5153635;27;20059;-78
2023/03/21 03:34:03;;;;;;;17.98;11.63;;;10.10;99.90;;;;;;5135237;27;20054;-78
2023/03/21 03:36:34;;;;;;;17.45;12.25;;;10.10;99.90;;;;;;5135227;27;20057;-77
2023/03/21 03:39:07;;;;;;;22.45;14.02;;;10.10;99.90;;;;;;5153595;27;20043;-77
2023/03/21 03:41:36;;;;;;;;;;;10.10;99.90;;;;;;5154156;27;20042;-77
2023/03/21 03:44:02;;;;;;;16.05;12.82;;;10.10;99.90;;;;;;5154010;27;19923;-77
2023/03/21 03:46:42;;;;;;;16.70;11.30;;;10.10;99.90;;;;;;5153273;27;20123;-77
2023/03/21 03:49:12;;;;;;;15.43;11.05;;;10.10;99.90;;;;;;5153431;27;20042;-77
2023/03/21 03:51:51;;;;;;;15.80;10.65;;;10.10;99.90;;;;;;5155382;27;20139;-77
2023/03/21 03:54:28;;;;;;;18.38;11.60;;;10.10;99.90;;;;;;5157290;27;20042;-77
2023/03/21 03:56:55;;;;;;;13.23;10.10;;;10.10;99.90;;;;;;5157379;27;20053;-77
2023/03/21 03:59:20;;;;;;;14.73;10.57;;;10.10;99.90;;;;;;5121617;27;20043;-76
2023/03/21 04:01:47;;;;;;;15.85;11.73;;;10.10;99.90;;;;;;5138799;27;20042;-77
2023/03/21 04:04:15;;;;;;;14.30;11.52;;;10.10;99.90;;;;;;5157138;27;20065;-77
2023/03/21 04:06:50;;;;;;;17.27;11.38;;;10.20;99.90;;;;;;5157173;27;20125;-76
2023/03/21 04:09:16;;;;;;;14.50;11.15;;;10.20;99.90;;;;;;5157027;27;20439;-76
2023/03/21 04:11:42;;;;;;;18.10;12.35;;;10.10;99.90;;;;;;5135383;27;20364;-76
2023/03/21 04:14:08;;;;;;;14.68;10.73;;;10.20;99.90;;;;;;5136353;27;20054;-77
2023/03/21 04:16:34;;;;;;;16.95;12.15;;;10.20;99.90;;;;;;5136896;27;20047;-76
2023/03/21 04:18:59;;;;;;;17.45;11.77;;;10.20;99.90;;;;;;5136075;27;20535;-77
2023/03/21 04:21:26;;;;;;;18.05;13.05;;;10.20;99.90;;;;;;5137153;27;20054;-76
2023/03/21 04:23:53;;;;;;;14.50;11.38;;;10.20;99.90;;;;;;5136401;27;20088;-77
2023/03/21 04:26:21;;;;;;;18.60;13.75;;;10.20;99.90;;;;;;5136147;27;20051;-76
2023/03/21 04:28:47;;;;;;;15.73;10.60;;;10.20;99.90;;;;;;5135917;27;20079;-76
2023/03/21 04:31:13;;;;;;;15.73;12.07;;;10.20;99.90;;;;;;5136100;27;20039;-76
2023/03/21 04:33:39;;;;;;;15.98;11.80;;;10.10;99.90;;;;;;5135866;27;20464;-76
2023/03/21 04:36:08;;;;;;;16.23;13.43;;;10.10;99.90;;;;;;5136080;27;20118;-77
2023/03/21 04:38:35;;;;;;;16.45;11.52;;;10.10;99.90;;;;;;5136314;27;20069;-77
2023/03/21 04:41:01;;;;;;;18.20;12.48;;;10.20;99.90;;;;;;5135603;27;20126;-77
2023/03/21 04:43:27;;;;;;;17.25;13.10;;;10.20;99.90;;;;;;5135935;27;20075;-76
2023/03/21 04:45:53;;;;;;;17.65;12.65;;;10.20;99.90;;;;;;5135648;27;20054;-77
2023/03/21 04:48:23;;;;;;;15.02;11.65;;;10.20;99.90;;;;;;5135729;27;20046;-77
2023/03/21 04:50:50;;;;;;;15.80;11.40;;;10.20;99.90;;;;;;5136283;27;20053;-77
2023/03/21 04:53:16;;;;;;;14.18;11.05;;;10.10;99.90;;;;;;5135405;27;20039;-76
2023/03/21 04:55:42;;;;;;;17.10;11.73;;;10.10;99.90;;;;;;5135408;27;20135;-77
2023/03/21 04:58:08;;;;;;;16.73;11.88;;;10.10;99.90;;;;;;5135250;27;20043;-77
2023/03/21 05:00:37;;;;;;;14.70;10.88;;;10.10;99.90;;;;;;5135453;27;20135;-78
2023/03/21 05:03:09;;;;;;;13.45;10.27;;;10.10;99.90;;;;;;5134602;27;20494;-77
2023/03/21 05:05:38;;;;;;;16.63;12.00;;;10.10;99.90;;;;;;5135781;27;20035;-78
2023/03/21 05:08:05;;;;;;;15.60;11.27;;;10.10;99.90;;;;;;5134771;27;20528;-78
2023/03/21 05:10:31;;;;;;;16.35;12.30;;;10.10;99.90;;;;;;5145279;27;20054;-76
2023/03/21 05:12:57;;;;;;;13.63;10.48;;;10.10;99.90;;;;;;5155623;27;20117;-78
2023/03/21 05:15:22;;;;;;;13.15;10.20;;;10.10;99.90;;;;;;5155518;27;20078;-78
2023/03/21 05:17:48;;;;;;;12.95;9.43;;;10.10;99.90;;;;;;5155788;27;20043;-78
2023/03/21 05:20:16;;;;;;;13.75;10.85;;;10.10;99.90;;;;;;5155944;27;20054;-78
2023/03/21 05:22:44;;;;;;;12.50;10.05;;;10.10;99.90;;;;;;5155383;27;20043;-77
2023/03/21 05:25:11;;;;;;;17.27;11.88;;;10.20;99.90;;;;;;5155283;27;20053;-78
2023/03/21 05:27:44;;;;;;;16.42;11.30;;;10.10;99.90;;;;;;5155173;27;20476;-78
2023/03/21 05:30:17;;;;;;;13.27;10.07;;;10.10;99.90;;;;;;5155441;27;20185;-78
2023/03/21 05:32:43;;;;;;;15.70;11.48;;;10.00;99.90;;;;;;5155542;27;20428;-78
2023/03/21 05:35:09;;;;;;;15.35;11.40;;;10.00;99.90;;;;;;5155341;27;20043;-78
2023/03/21 05:37:35;;;;;;;15.10;11.13;;;10.00;99.90;;;;;;5136553;27;20082;-79
2023/03/21 05:40:01;;;;;;;14.90;10.45;;;10.00;99.90;;;;;;5136630;27;20077;-78
2023/03/21 05:42:26;;;;;;;14.18;10.88;;;10.00;99.90;;;;;;5154739;27;20046;-77
2023/03/21 05:44:52;;;;;;;16.40;12.20;;;10.00;99.90;;;;;;5155170;27;20134;-77
2023/03/21 05:47:18;;;;;;;16.13;11.60;;;10.10;99.90;;;;;;5154593;27;20050;-79
2023/03/21 05:49:44;;;;;;;16.85;12.45;;;10.00;99.90;;;;;;5154620;27;20042;-78
2023/03/21 05:52:11;;;;;;;17.60;12.80;;;10.00;99.90;;;;;;5154612;27;20065;-78
2023/03/21 05:54:36;;;;;;;14.13;11.18;;;10.00;99.90;;;;;;5154288;27;20110;-78
2023/03/21 05:57:03;;;;;;;17.75;13.57;;;9.90;99.90;;;;;;5155973;27;20512;-78
2023/03/21 05:59:29;;;;;;;20.20;13.70;;;10.00;99.90;;;;;;5156119;27;20039;-79
2023/03/21 06:01:55;;;;;;;19.88;14.18;;;10.00;99.90;;;;;;5154919;27;20414;-79
2023/03/21 06:04:21;;;;;;;23.10;15.63;;;10.00;99.90;;;;;;5154424;27;20051;-77
2023/03/21 06:06:46;;;;;;;19.02;13.70;;;10.00;99.90;;;;;;5136238;27;20107;-78
2023/03/21 06:09:12;;;;;;;18.20;13.98;;;10.00;99.90;;;;;;5154741;27;20608;-78
2023/03/21 06:11:43;;;;;;;18.10;13.27;;;10.00;99.90;;;;;;5154946;27;20070;-79
2023/03/21 06:14:08;;;;;;;19.50;15.38;;;10.00;99.90;;;;;;5136039;27;20050;-80
2023/03/21 06:16:34;;;;;;;21.65;15.60;;;10.00;99.90;;;;;;5154675;27;20437;-79
2023/03/21 06:19:00;;;;;;;22.00;16.40;;;10.00;99.90;;;;;;5136331;27;20078;-79
2023/03/21 06:21:25;;;;;;;18.25;14.02;;;10.00;99.90;;;;;;5136151;27;20457;-77
2023/03/21 06:23:51;;;;;;;19.42;14.38;;;10.00;99.90;;;;;;5154264;27;20543;-79
2023/03/21 06:26:21;;;;;;;18.83;13.90;;;10.00;99.90;;;;;;5154223;27;20082;-77
2023/03/21 06:28:52;;;;;;;17.50;13.75;;;10.00;99.90;;;;;;5154433;27;20042;-78
2023/03/21 06:31:22;;;;;;;19.17;14.45;;;9.90;99.90;;;;;;5154282;27;20043;-78
2023/03/21 06:33:48;;;;;;;18.45;15.10;;;9.90;99.90;;;;;;5154105;27;20043;-78
2023/03/21 06:36:14;;;;;;;19.02;15.75;;;10.00;99.90;;;;;;5135748;27;20133;-79
2023/03/21 06:38:40;;;;;;;18.00;14.65;;;10.00;99.90;;;;;;5136149;27;20133;-79
2023/03/21 06:41:06;;;;;;;18.17;14.60;;;10.10;99.90;;;;;;5154446;27;20448;-80
2023/03/21 06:43:33;;;;;;;19.95;15.52;;;10.10;99.90;;;;;;5154655;27;20043;-78
2023/03/21 06:46:00;;;;;;;19.48;14.90;;;10.10;99.90;;;;;;5154481;27;20039;-78
2023/03/21 06:48:26;;;;;;;19.80;14.95;;;10.00;99.90;;;;;;5120437;27;20047;-79
2023/03/21 06:50:53;;;;;;;20.05;14.98;;;10.10;99.90;;;;;;5154207;27;20041;-80
2023/03/21 06:53:26;;;;;;;18.10;16.17;;;10.10;99.90;;;;;;5154549;27;20042;-79
2023/03/21 06:55:52;;;;;;;18.92;15.18;;;10.10;99.90;;;;;;5153943;27;20047;-79
2023/03/21 06:58:19;;;;;;;19.75;15.63;;;10.00;99.90;;;;;;5154233;27;20038;-79
2023/03/21 07:00:45;;;;;;;20.45;16.08;;;10.10;99.90;;;;;;5153937;27;20118;-79
2023/03/21 07:03:11;;;;;;;19.23;14.40;;;10.00;99.90;;;;;;5153955;27;20486;-80
2023/03/21 07:05:38;;;;;;;17.25;13.90;;;10.00;99.90;;;;;;5154182;27;20069;-80
2023/03/21 07:08:05;;;;;;;17.88;13.50;;;10.00;99.90;;;;;;5153920;27;20057;-80
2023/03/21 07:10:30;;;;;;;18.73;14.40;;;10.10;99.90;;;;;;5153371;27;20065;-80
2023/03/21 07:12:58;;;;;;;16.48;13.43;;;10.10;99.90;;;;;;5135231;27;20118;-79
2023/03/21 07:15:25;;;;;;;16.40;14.20;;;10.10;99.90;;;;;;5153751;27;20081;-78
2023/03/21 07:17:51;;;;;;;15.35;12.77;;;10.10;99.90;;;;;;5134829;27;20051;-79
2023/03/21 07:20:16;;;;;;;16.27;13.25;;;10.10;99.90;;;;;;5153527;27;20038;-79
2023/03/21 07:22:42;;;;;;;13.25;11.50;;;10.10;99.90;;;;;;5153794;27;20121;-78
2023/03/21 07:25:09;;;;;;;13.40;11.93;;;10.20;99.90;;;;;;5135659;27;20082;-79
2023/03/21 07:27:35;;;;;;;14.27;10.85;;;10.10;99.90;;;;;;5157958;27;20070;-79
2023/03/21 07:30:05;;;;;;;17.30;13.52;;;10.10;99.90;;;;;;5158221;27;20081;-78
2023/03/21 07:32:36;;;;;;;13.48;12.05;;;10.20;99.90;;;;;;5157927;27;20484;-79
2023/03/21 07:35:02;;;;;;;13.45;11.02;;;10.20;99.90;;;;;;5157609;27;20506;-79
2023/03/21 07:37:28;;;;;;;13.05;11.07;;;10.20;99.90;;;;;;5157406;27;20043;-79
2023/03/21 07:39:54;;;;;;;13.57;11.20;;;10.20;99.90;;;;;;5157530;27;20050;-77
2023/03/21 07:42:20;;;;;;;14.25;10.52;;;10.20;99.90;;;;;;5157637;27;20042;-78
2023/03/21 07:44:46;;;;;;;12.27;10.00;;;10.20;99.90;;;;;;5157194;27;20046;-78
2023/03/21 07:47:11;;;;;;;15.70;10.57;;;10.30;99.90;;;;;;5157227;27;20054;-78
2023/03/21 07:49:37;;;;;;;11.57;10.15;;;10.40;99.90;;;;;;5138628;27;20046;-78
2023/03/21 07:52:04;;;;;;;11.75;9.55;;;10.40;99.90;;;;;;5138858;27;20042;-77
2023/03/21 07:54:29;;;;;;;11.40;9.20;;;10.40;99.90;;;;;;5139244;27;20039;-78
2023/03/21 07:56:56;;;;;;;10.30;8.77;;;10.40;99.90;;;;;;5138606;27;20523;-78
2023/03/21 07:59:22;;;;;;;9.50;8.05;;;10.40;99.90;;;;;;5157335;27;20043;-78
2023/03/21 08:01:47;;;;;;;7.95;6.57;;;10.40;99.90;;;;;;5157234;27;20047;-78
2023/03/21 08:04:13;;;;;;;7.65;6.18;;;10.30;99.90;;;;;;5138230;27;20049;-79
2023/03/21 08:06:39;;;;;;;7.65;6.05;;;10.30;99.90;;;;;;5104378;27;20046;-78
2023/03/21 08:09:06;;;;;;;7.78;6.00;;;10.40;99.90;;;;;;5138498;27;20042;-78
2023/03/21 08:11:32;;;;;;;8.73;6.28;;;10.30;99.90;;;;;;5138626;27;20099;-78
2023/03/21 08:13:58;;;;;;;6.75;5.38;;;10.30;99.90;;;;;;5156708;27;20039;-78
2023/03/21 08:16:24;;;;;;;6.90;5.82;;;10.40;99.90;;;;;;5156695;27;20078;-79
2023/03/21 08:18:50;;;;;;;7.53;5.93;;;10.40;99.90;;;;;;5156572;27;20046;-77
2023/03/21 08:21:16;;;;;;;7.40;5.90;;;10.40;99.90;;;;;;5138580;27;20332;-77
2023/03/21 08:23:42;;;;;;;7.40;6.57;;;10.30;99.90;;;;;;5156451;27;20043;-77
2023/03/21 08:26:09;;;;;;;8.05;6.65;;;10.30;99.90;;;;;;5156747;27;20047;-78
2023/03/21 08:28:35;;;;;;;9.25;7.30;;;10.30;99.90;;;;;;5156280;27;20061;-77
2023/03/21 08:31:07;;;;;;;8.77;7.63;;;10.40;99.90;;;;;;5137519;27;20146;-77
2023/03/21 08:33:32;;;;;;;9.77;7.78;;;10.40;99.90;;;;;;5156715;27;20355;-77
2023/03/21 08:36:02;;;;;;;8.80;7.93;;;10.30;99.90;;;;;;5156296;27;20035;-77
2023/03/21 08:38:28;;;;;;;8.35;7.50;;;10.30;99.90;;;;;;5156005;27;20086;-77
2023/03/21 08:40:59;;;;;;;7.80;7.05;;;10.30;99.90;;;;;;5155903;27;20581;-77
2023/03/21 08:43:25;;;;;;;10.15;8.10;;;10.30;99.90;;;;;;5156555;27;20047;-77
2023/03/21 08:45:51;;;;;;;10.13;8.68;;;10.30;99.90;;;;;;5155936;27;20050;-77
2023/03/21 08:48:17;;;;;;;10.10;7.68;;;10.30;99.90;;;;;;5156044;27;20047;-76
2023/03/21 08:50:43;;;;;;;9.60;8.38;;;10.40;99.90;;;;;;5155770;27;20464;-76
2023/03/21 08:53:08;;;;;;;9.77;7.53;;;10.40;99.90;;;;;;5156001;27;20047;-76
2023/03/21 08:55:34;;;;;;;9.70;8.45;;;10.40;99.90;;;;;;5155697;27;20504;-77
2023/03/21 08:58:00;;;;;;;9.30;7.60;;;10.40;99.90;;;;;;5155945;27;20042;-76
2023/03/21 09:00:27;;;;;;;8.95;7.80;;;10.40;99.90;;;;;;5155844;27;20081;-77
2023/03/21 09:02:53;;;;;;;8.60;7.47;;;10.40;99.90;;;;;;5155498;27;20425;-77
2023/03/21 09:05:20;;;;;;;10.98;8.73;;;10.40;99.90;;;;;;5155879;27;20058;-77
2023/03/21 09:07:46;;;;;;;10.98;8.57;;;10.40;99.90;;;;;;5155796;27;20042;-76
2023/03/21 09:10:15;;;;;;;10.45;8.60;;;10.40;99.90;;;;;;5155558;27;20104;-77
2023/03/21 09:12:41;;;;;;;9.63;8.10;;;10.50;99.90;;;;;;5155711;27;20047;-77
2023/03/21 09:15:08;;;;;;;12.70;8.45;;;10.50;99.90;;;;;;5155466;27;20046;-77
2023/03/21 09:17:35;;;;;;;12.77;9.18;;;10.50;99.90;;;;;;5155689;27;20132;-77
2023/03/21 09:20:07;;;;;;;13.10;9.70;;;10.50;99.90;;;;;;5155792;27;20057;-77
2023/03/21 09:22:33;;;;;;;11.68;10.13;;;10.50;99.90;;;;;;5155222;27;20157;-77
2023/03/21 09:25:06;;;;;;;13.23;10.18;;;10.50;99.90;;;;;;5155509;27;20038;-77
2023/03/21 09:27:32;;;;;;;12.02;10.63;;;10.50;99.90;;;;;;5137143;27;20054;-77
2023/03/21 09:29:58;;;;;;;14.32;10.73;;;10.50;99.90;;;;;;5155223;27;20047;-77
2023/03/21 09:32:24;;;;;;;15.45;9.13;;;10.50;99.90;;;;;;5136912;27;20055;-77
2023/03/21 09:34:51;;;;;;;11.95;9.57;;;10.50;99.90;;;;;;5137059;27;20050;-76
2023/03/21 09:37:17;;;;;;;12.85;10.05;;;10.60;99.90;;;;;;5155564;27;20057;-77
2023/03/21 09:39:43;;;;;;;11.38;9.63;;;10.50;99.90;;;;;;5155260;27;20038;-77
2023/03/21 09:42:30;;;;;;;11.55;10.32;;;10.60;99.90;;;;;;5155038;27;20397;-76
2023/03/21 09:45:19;;;;;;;13.25;10.65;;;10.60;99.90;;;;;;5155019;27;20496;-76
2023/03/21 09:47:55;;;;;;;14.75;10.82;;;10.50;99.90;;;;;;5155585;27;20064;-77
2023/03/21 09:50:36;;;;;;;18.65;12.85;;;10.50;99.90;;;;;;5153975;27;20107;-76
2023/03/21 09:53:14;;;;;;;16.92;13.07;;;10.50;99.90;;;;;;5136710;27;20046;-77
2023/03/21 09:55:41;;;;;;;13.38;10.98;;;10.50;99.90;;;;;;5154578;27;20541;-76
2023/03/21 09:58:42;;;;;;;18.17;12.40;;;10.40;99.90;;;;;;5154746;27;20046;-76
2023/03/21 10:01:21;;;;;;;18.50;13.48;;;10.40;99.90;;;;;;5155062;27;20046;-77
2023/03/21 10:03:49;;;;;;;16.63;12.23;;;10.50;99.90;;;;;;5154707;27;20426;-76
2023/03/21 10:06:16;;;;;;;22.13;14.85;;;10.40;99.90;;;;;;5136264;27;20046;-76
2023/03/21 10:08:45;;;;;;;16.88;14.65;;;10.40;99.90;;;;;;5154613;27;20042;-77
2023/03/21 10:11:34;;;;;;;23.60;14.52;;;10.40;99.90;;;;;;5154636;27;20101;-75
2023/03/21 10:14:25;;;;;;;22.42;14.75;;;10.40;99.90;;;;;;5154251;27;20132;-77
2023/03/21 10:16:57;;;;;;;20.92;15.63;;;10.30;99.90;;;;;;5135774;27;20107;-77
2023/03/21 10:19:23;;;;;;;22.00;15.02;;;10.40;99.90;;;;;;5154260;27;20052;-76
2023/03/21 10:21:50;;;;;;;18.35;15.80;;;10.30;99.90;;;;;;5154255;27;20047;-77
2023/03/21 10:24:23;;;;;;;21.17;15.77;;;10.30;99.90;;;;;;5154642;27;20046;-76
2023/03/21 10:26:50;;;;;;;24.77;17.30;;;10.30;99.90;;;;;;5136081;27;20047;-76
2023/03/21 10:29:17;;;;;;;24.42;18.02;;;10.30;99.90;;;;;;5154217;27;20031;-77
2023/03/21 10:31:45;;;;;;;21.42;17.58;;;10.30;99.90;;;;;;5154260;27;20051;-76
2023/03/21 10:34:39;;;;;;;25.05;17.38;;;10.30;99.90;;;;;;5154147;27;20053;-77
2023/03/21 10:37:05;;;;;;;21.90;16.73;;;10.30;99.90;;;;;;5127795;27;20360;-76
2023/03/21 10:39:45;;;;;;;22.77;15.32;;;10.30;99.90;;;;;;5136341;27;20464;-76
2023/03/21 10:42:23;;;;;;;20.23;16.30;;;10.30;99.90;;;;;;5154949;27;20102;-76
2023/03/21 10:44:51;;;;;;;22.20;16.88;;;10.30;99.90;;;;;;5154932;27;20050;-77
2023/03/21 10:47:23;;;;;;;20.90;14.38;;;10.30;99.90;;;;;;5154382;27;20043;-77
2023/03/21 10:49:49;;;;;;;19.88;14.23;;;10.40;99.90;;;;;;5154665;27;20043;-77
2023/03/21 10:52:19;;;;;;;19.92;14.88;;;10.40;99.90;;;;;;5154242;27;20043;-77
2023/03/21 10:54:45;;;;;;;22.15;15.25;;;10.50;99.90;;;;;;5136163;27;20515;-77
2023/03/21 10:57:21;;;;;;;18.05;15.02;;;10.50;99.90;;;;;;5119315;27;20066;-76
2023/03/21 10:59:52;;;;;;;18.38;11.82;;;10.60;99.90;;;;;;5154959;27;20107;-77
2023/03/21 11:02:36;;;;;;;15.88;11.52;;;10.60;99.90;;;;;;5158432;27;20053;-77
2023/03/21 11:05:23;;;;;;;19.75;13.07;;;10.60;99.90;;;;;;5139854;27;20134;-77
2023/03/21 11:08:13;;;;;;;24.85;13.27;;;10.70;99.90;;;;;;5158825;27;20057;-76
2023/03/21 11:11:06;;;;;;;20.63;13.10;;;10.80;99.90;;;;;;5145682;27;20086;-77
2023/03/21 11:13:43;;;;;;;21.25;13.50;;;11.00;99.90;;;;;;5158312;27;20451;-77
2023/03/21 11:16:17;;;;;;;16.73;12.43;;;11.10;99.90;;;;;;5158174;27;20038;-78
2023/03/21 11:18:48;;;;;;;18.73;12.68;;;11.20;99.90;;;;;;5139723;27;20042;-78
2023/03/21 11:21:15;;;;;;;18.30;13.02;;;11.30;99.90;;;;;;5158200;27;20058;-78
2023/03/21 11:23:46;;;;;;;15.60;11.68;;;11.30;99.90;;;;;;5158620;27;20046;-78
2023/03/21 11:26:29;;;;;;;15.55;11.38;;;11.40;99.90;;;;;;5140703;27;20050;-78
2023/03/21 11:28:56;;;;;;;16.63;11.88;;;11.50;99.90;;;;;;5158331;27;20062;-78
2023/03/21 11:31:35;;;;;;;18.73;11.88;;;11.50;99.90;;;;;;5139511;27;20676;-79
2023/03/21 11:34:05;;;;;;;13.27;10.70;;;11.60;99.90;;;;;;5139769;27;20523;-79
2023/03/21 11:36:38;;;;;;;22.58;12.32;;;11.70;99.90;;;;;;5139071;27;20046;-79
2023/03/21 11:39:25;;;;;;;13.20;10.23;;;11.70;99.90;;;;;;5157625;27;20098;-77
2023/03/21 11:41:51;;;;;;;15.88;11.50;;;11.70;99.90;;;;;;5157386;27;20054;-77
2023/03/21 11:44:40;;;;;;;15.73;10.90;;;11.80;99.90;;;;;;5157348;27;20042;-78
2023/03/21 11:47:09;;;;;;;15.45;10.10;;;11.80;99.90;;;;;;5157745;27;20397;-77
2023/03/21 11:49:35;;;;;;;12.25;10.00;;;11.90;99.90;;;;;;5157029;27;20043;-78
2023/03/21 11:52:22;;;;;;;12.80;10.43;;;11.90;99.90;;;;;;5157243;27;20110;-77
2023/03/21 11:55:30;;;;;;;13.93;9.48;;;12.00;99.90;;;;;;5157734;27;20269;-77
2023/03/21 11:58:12;;;;;;;12.63;9.52;;;12.00;99.90;;;;;;5157432;27;20089;-77
2023/03/21 12:00:50;;;;;;;13.95;8.35;;;12.10;99.90;;;;;;5157248;27;20050;-77
2023/03/21 12:03:40;;;;;;;16.80;10.23;;;12.10;99.90;;;;;;5157127;27;20043;-77
2023/03/21 12:06:18;;;;;;;12.70;9.50;;;12.10;99.90;;;;;;5156865;27;20039;-77
2023/03/21 12:08:52;;;;;;;13.02;8.55;;;12.10;99.90;;;;;;5156892;27;20049;-78
2023/03/21 12:11:41;;;;;;;12.48;8.82;;;12.20;99.90;;;;;;5156989;27;20114;-78
2023/03/21 12:14:28;;;;;;;13.82;9.18;;;12.20;99.90;;;;;;5156770;27;20045;-77
2023/03/21 12:17:23;;;;;;;14.10;10.85;;;12.30;99.90;;;;;;5156635;27;20073;-79
2023/03/21 12:20:17;;;;;;;12.98;9.07;;;12.40;99.90;;;;;;5133022;27;20377;-78
2023/03/21 12:22:51;;;;;;;11.00;8.15;;;12.40;99.90;;;;;;5156985;27;20047;-78
2023/03/21 12:25:30;;;;;;;13.93;9.90;;;12.40;99.90;;;;;;5156922;27;20042;-76
2023/03/21 12:28:32;;;;;;;13.52;9.32;;;12.40;99.90;;;;;;5156974;27;20053;-78
2023/03/21 12:31:16;;;;;;;12.98;8.25;;;12.30;99.90;;;;;;5156449;27;20383;-79
2023/03/21 12:34:24;;;;;;;11.48;9.13;;;12.20;99.90;;;;;;5156402;27;20086;-77
2023/03/21 12:36:59;;;;;;;11.18;8.70;;;12.20;99.90;;;;;;5144934;27;20094;-79
2023/03/21 12:39:31;;;;;;;10.65;8.43;;;12.10;99.90;;;;;;5156422;27;20039;-78
2023/03/21 12:41:59;;;;;;;11.93;8.90;;;12.00;99.90;;;;;;5156244;27;20050;-78
2023/03/21 12:44:28;;;;;;;13.73;8.68;;;12.00;99.90;;;;;;5156224;27;20046;-79
2023/03/21 12:46:54;;;;;;;15.55;9.50;;;11.90;99.90;;;;;;5156491;27;20043;-77
2023/03/21 12:49:31;;;;;;;11.98;8.20;;;11.90;99.90;;;;;;5155934;27;20039;-75